createdAt,value
2022-11-07T00:00:53.030Z,50.70
2022-11-07T00:03:23.070Z,50.80
2022-11-07T00:05:53.239Z,50.70
2022-11-07T00:08:33.363Z,50.70
2022-11-07T00:11:04.021Z,50.70
2022-11-07T00:13:34.478Z,50.80
2022-11-07T00:16:06.443Z,50.70
2022-11-07T00:18:36.650Z,50.70
2022-11-07T00:21:07.822Z,50.70
2022-11-07T00:23:38.165Z,50.50
2022-11-07T00:26:09.784Z,50.20
2022-11-07T00:28:41.807Z,49.80
2022-11-07T00:31:12.826Z,49.40
2022-11-07T00:33:43.610Z,48.90
2022-11-07T00:36:25.233Z,48.60
2022-11-07T00:38:56.627Z,48.50
2022-11-07T00:41:29.173Z,48.30
2022-11-07T00:43:59.390Z,48.30
2022-11-07T00:46:29.329Z,48.30
2022-11-07T00:48:59.328Z,48.20
2022-11-07T00:51:30.165Z,48.20
2022-11-07T00:54:00.444Z,48.20
2022-11-07T00:56:30.440Z,48.30
2022-11-07T00:59:00.947Z,48.20
2022-11-07T01:01:32.996Z,48.30
2022-11-07T01:04:21.358Z,48.80
2022-11-07T01:06:56.874Z,48.30
2022-11-07T01:09:30.029Z,48.20
2022-11-07T01:12:01.574Z,48.20
2022-11-07T01:14:41.284Z,48.10
2022-11-07T01:17:13.987Z,48.10
2022-11-07T01:19:44.459Z,48.00
2022-11-07T01:22:18.531Z,47.80
2022-11-07T01:24:49.069Z,47.90
2022-11-07T01:27:19.840Z,47.90
2022-11-07T01:29:50.219Z,48.00
2022-11-07T01:32:20.973Z,48.00
2022-11-07T01:34:51.245Z,48.10
2022-11-07T01:37:24.538Z,48.10
2022-11-07T01:39:58.438Z,48.10
2022-11-07T01:42:28.615Z,48.00
2022-11-07T01:45:00.437Z,48.00
2022-11-07T01:47:37.538Z,48.10
2022-11-07T01:50:08.509Z,47.90
2022-11-07T01:52:53.159Z,48.10
2022-11-07T01:55:32.280Z,48.10
2022-11-07T01:58:09.034Z,48.10
2022-11-07T02:00:39.109Z,48.10
2022-11-07T02:03:14.182Z,48.20
2022-11-07T02:05:54.102Z,48.20
2022-11-07T02:08:24.341Z,48.20
2022-11-07T02:10:54.562Z,48.20
2022-11-07T02:13:27.261Z,48.70
2022-11-07T02:15:59.985Z,48.30
2022-11-07T02:18:37.603Z,48.30
2022-11-07T02:21:37.220Z,48.30
2022-11-07T02:24:14.195Z,48.30
2022-11-07T02:26:52.519Z,48.30
2022-11-07T02:29:28.703Z,48.30
2022-11-07T02:32:06.480Z,48.40
2022-11-07T02:34:49.923Z,48.30
2022-11-07T02:37:33.216Z,48.30
2022-11-07T02:40:04.922Z,48.90
2022-11-07T02:42:44.574Z,49.00
2022-11-07T02:45:29.760Z,48.30
2022-11-07T02:47:59.811Z,48.30
2022-11-07T02:50:30.396Z,48.30
2022-11-07T02:53:00.749Z,48.30
2022-11-07T02:55:30.733Z,48.30
2022-11-07T02:58:01.156Z,48.30
2022-11-07T03:00:31.122Z,48.40
2022-11-07T03:03:01.100Z,48.40
2022-11-07T03:05:31.167Z,48.40
2022-11-07T03:08:01.060Z,48.40
2022-11-07T03:10:30.970Z,48.40
2022-11-07T03:13:01.011Z,48.40
2022-11-07T03:15:31.005Z,48.20
2022-11-07T03:18:02.692Z,48.20
2022-11-07T03:20:33.206Z,48.10
2022-11-07T03:23:03.294Z,48.00
2022-11-07T03:25:33.196Z,47.90
2022-11-07T03:28:03.904Z,47.80
2022-11-07T03:30:34.839Z,47.60
2022-11-07T03:33:04.956Z,47.60
2022-11-07T03:35:37.409Z,47.50
2022-11-07T03:38:07.979Z,47.40
2022-11-07T03:40:38.749Z,47.40
2022-11-07T03:43:08.831Z,47.20
2022-11-07T03:45:38.779Z,47.20
2022-11-07T03:48:08.843Z,47.20
2022-11-07T03:50:40.241Z,47.20
2022-11-07T03:53:11.237Z,47.10
2022-11-07T03:55:43.444Z,47.10
2022-11-07T03:58:13.660Z,47.00
2022-11-07T04:00:43.683Z,47.00
2022-11-07T04:03:14.952Z,47.00
2022-11-07T04:05:48.028Z,46.90
2022-11-07T04:08:18.650Z,46.80
2022-11-07T04:10:48.988Z,46.80
2022-11-07T04:13:36.965Z,46.80
2022-11-07T04:16:29.766Z,46.80
2022-11-07T04:19:00.157Z,46.80
2022-11-07T04:21:30.044Z,46.80
2022-11-07T04:23:59.967Z,46.70
2022-11-07T04:26:47.783Z,46.80
2022-11-07T04:29:17.941Z,46.80
2022-11-07T04:31:47.958Z,47.00
2022-11-07T04:34:17.920Z,47.10
2022-11-07T04:36:47.825Z,47.30
2022-11-07T04:39:17.758Z,47.80
2022-11-07T04:41:47.671Z,47.40
2022-11-07T04:44:17.606Z,47.50
2022-11-07T04:46:47.541Z,47.60
2022-11-07T04:49:17.469Z,47.70
2022-11-07T04:51:47.562Z,47.80
2022-11-07T04:54:17.664Z,48.00
2022-11-07T04:56:47.593Z,48.00
2022-11-07T04:59:17.511Z,48.10
2022-11-07T05:01:47.668Z,48.20
2022-11-07T05:04:17.596Z,48.30
2022-11-07T05:06:47.691Z,48.40
2022-11-07T05:09:19.182Z,48.50
2022-11-07T05:11:49.677Z,48.60
2022-11-07T05:14:19.583Z,48.60
2022-11-07T05:16:49.533Z,48.70
2022-11-07T05:19:20.255Z,48.80
2022-11-07T05:22:10.269Z,48.80
2022-11-07T05:24:40.678Z,48.80
2022-11-07T05:27:22.999Z,48.80
2022-11-07T05:29:53.144Z,48.80
2022-11-07T05:32:23.071Z,48.90
2022-11-07T05:34:55.836Z,48.80
2022-11-07T05:37:25.765Z,48.90
2022-11-07T05:39:55.694Z,48.90
2022-11-07T05:42:25.622Z,48.90
2022-11-07T05:44:55.589Z,48.90
2022-11-07T05:47:25.546Z,49.00
2022-11-07T05:49:55.517Z,49.10
2022-11-07T05:52:25.615Z,49.20
2022-11-07T05:54:55.559Z,49.10
2022-11-07T05:57:28.686Z,49.20
2022-11-07T06:00:01.513Z,49.20
2022-11-07T06:02:42.052Z,49.30
2022-11-07T06:05:19.317Z,49.20
2022-11-07T06:07:52.491Z,49.20
2022-11-07T06:10:22.592Z,49.10
2022-11-07T06:13:02.809Z,49.10
2022-11-07T06:15:34.523Z,49.20
2022-11-07T06:18:05.028Z,49.20
2022-11-07T06:20:35.973Z,49.20
2022-11-07T06:23:06.937Z,49.20
2022-11-07T06:25:37.547Z,49.20
2022-11-07T06:28:09.445Z,49.20
2022-11-07T06:30:39.535Z,49.20
2022-11-07T06:33:12.038Z,49.20
2022-11-07T06:35:42.150Z,49.10
2022-11-07T06:38:13.018Z,49.00
2022-11-07T06:40:43.795Z,49.00
2022-11-07T06:43:15.898Z,49.00
2022-11-07T06:45:46.532Z,49.00
2022-11-07T06:48:16.735Z,48.90
2022-11-07T06:50:49.083Z,48.90
2022-11-07T06:53:19.456Z,48.90
2022-11-07T06:55:49.660Z,48.90
2022-11-07T06:58:19.643Z,48.90
2022-11-07T07:00:49.731Z,48.80
2022-11-07T07:03:19.882Z,48.90
2022-11-07T07:05:49.840Z,48.90
2022-11-07T07:08:20.342Z,48.90
2022-11-07T07:10:50.400Z,48.80
2022-11-07T07:13:20.291Z,48.80
2022-11-07T07:15:56.916Z,48.90
2022-11-07T07:18:27.133Z,48.80
2022-11-07T07:21:17.318Z,48.80
2022-11-07T07:23:49.802Z,48.80
2022-11-07T07:26:20.138Z,48.90
2022-11-07T07:28:53.232Z,48.80
2022-11-07T07:31:24.689Z,48.80
2022-11-07T07:33:54.755Z,41.00
2022-11-07T07:36:24.835Z,46.00
2022-11-07T07:38:54.818Z,46.60
2022-11-07T07:41:24.800Z,46.70
2022-11-07T07:43:54.700Z,46.70
2022-11-07T07:46:25.054Z,46.70
2022-11-07T07:48:55.489Z,46.70
2022-11-07T07:51:25.763Z,47.00
2022-11-07T07:53:55.671Z,47.00
2022-11-07T07:56:25.805Z,47.10
2022-11-07T07:58:55.873Z,47.10
2022-11-07T08:01:25.979Z,47.80
2022-11-07T08:04:02.085Z,47.40
2022-11-07T08:06:33.698Z,47.50
2022-11-07T08:09:04.756Z,47.50
2022-11-07T08:11:35.006Z,47.60
2022-11-07T08:14:04.928Z,47.60
2022-11-07T08:16:34.863Z,47.50
2022-11-07T08:19:05.286Z,47.70
2022-11-07T08:21:35.234Z,47.70
2022-11-07T08:24:05.318Z,47.90
2022-11-07T08:26:36.432Z,48.00
2022-11-07T08:29:07.342Z,48.00
2022-11-07T08:31:37.883Z,48.10
2022-11-07T08:34:08.099Z,48.10
2022-11-07T08:36:38.189Z,48.20
2022-11-07T08:39:09.155Z,48.20
2022-11-07T08:44:11.213Z,48.30
2022-11-07T09:29:41.555Z,48.60
2022-11-07T09:32:38.125Z,46.90
2022-11-07T09:35:05.106Z,47.00
2022-11-07T09:37:38.740Z,47.00
2022-11-07T09:40:22.056Z,47.20
2022-11-07T09:43:00.931Z,47.30
2022-11-07T09:45:31.512Z,47.30
2022-11-07T09:48:07.093Z,47.30
2022-11-07T09:50:42.884Z,47.40
2022-11-07T09:53:44.087Z,47.50
2022-11-07T09:56:14.287Z,47.50
2022-11-07T09:58:52.787Z,47.50
2022-11-07T10:01:22.928Z,47.70
2022-11-07T10:04:23.470Z,47.80
2022-11-07T10:06:55.652Z,47.60
2022-11-07T10:09:29.582Z,47.60
2022-11-07T10:12:13.083Z,47.80
2022-11-07T10:14:52.250Z,47.80
2022-11-07T10:17:44.717Z,47.90
2022-11-07T10:20:24.502Z,48.00
2022-11-07T10:23:16.901Z,48.00
2022-11-07T10:25:52.250Z,48.10
2022-11-07T10:28:22.466Z,48.00
2022-11-07T10:30:56.176Z,48.00
2022-11-07T10:33:26.095Z,48.10
2022-11-07T10:36:19.659Z,48.30
2022-11-07T10:38:49.574Z,48.20
2022-11-07T10:41:21.890Z,48.40
2022-11-07T10:43:57.939Z,49.20
2022-11-07T10:46:46.764Z,49.00
2022-11-07T10:49:29.345Z,49.90
2022-11-07T10:52:08.876Z,49.70
2022-11-07T10:54:38.925Z,49.20
2022-11-07T10:57:14.277Z,48.90
2022-11-07T10:59:56.240Z,49.30
2022-11-07T11:02:31.710Z,48.80
2022-11-07T11:05:05.809Z,48.70
2022-11-07T11:07:40.404Z,49.00
2022-11-07T11:10:24.818Z,48.70
2022-11-07T11:12:54.763Z,48.60
2022-11-07T11:15:28.815Z,48.60
2022-11-07T11:18:06.532Z,48.60
2022-11-07T11:20:40.335Z,48.70
2022-11-07T11:23:22.526Z,48.90
2022-11-07T11:25:53.412Z,48.80
2022-11-07T11:28:29.245Z,48.80
2022-11-07T11:31:05.181Z,49.10
2022-11-07T11:33:53.299Z,48.80
2022-11-07T11:36:29.091Z,49.00
2022-11-07T11:38:59.068Z,48.80
2022-11-07T11:41:53.363Z,48.80
2022-11-07T11:44:32.517Z,48.80
2022-11-07T11:47:35.730Z,48.90
2022-11-07T11:50:33.515Z,49.00
2022-11-07T11:53:03.549Z,48.80
2022-11-07T11:55:40.592Z,49.10
2022-11-07T11:58:45.748Z,49.20
2022-11-07T12:01:20.493Z,48.80
2022-11-07T12:03:58.844Z,49.40
2022-11-07T12:06:35.316Z,49.30
2022-11-07T12:09:17.380Z,49.60
2022-11-07T12:12:18.522Z,49.60
2022-11-07T12:15:09.846Z,49.90
2022-11-07T12:17:54.646Z,49.90
2022-11-07T12:20:54.631Z,49.60
2022-11-07T12:23:27.875Z,50.00
2022-11-07T12:26:20.786Z,49.80
2022-11-07T12:29:15.002Z,50.00
2022-11-07T12:32:00.363Z,49.70
2022-11-07T12:34:39.506Z,50.00
2022-11-07T12:37:37.003Z,49.70
2022-11-07T12:40:34.925Z,50.00
2022-11-07T12:43:13.587Z,49.80
2022-11-07T12:46:11.421Z,49.90
2022-11-07T12:49:05.682Z,49.80
2022-11-07T12:52:02.828Z,49.90
2022-11-07T12:54:50.989Z,50.00
2022-11-07T12:57:28.266Z,49.80
2022-11-07T13:00:13.617Z,49.70
2022-11-07T13:03:05.207Z,49.80
2022-11-07T13:06:04.490Z,49.80
2022-11-07T13:08:36.732Z,49.60
2022-11-07T13:11:15.905Z,49.50
2022-11-07T13:13:51.823Z,49.40
2022-11-07T13:16:29.778Z,49.60
2022-11-07T13:19:35.272Z,49.60
2022-11-07T13:22:15.652Z,49.40
2022-11-07T13:25:20.681Z,49.70
2022-11-07T13:27:59.688Z,49.80
2022-11-07T13:30:32.417Z,49.70
2022-11-07T13:33:02.481Z,49.60
2022-11-07T13:35:36.724Z,50.00
2022-11-07T13:38:19.642Z,49.80
2022-11-07T13:41:02.958Z,49.80
2022-11-07T13:43:37.764Z,49.70
2022-11-07T13:46:33.557Z,49.80
2022-11-07T13:49:12.217Z,49.40
2022-11-07T13:51:44.436Z,49.50
2022-11-07T13:54:30.287Z,49.40
2022-11-07T13:57:15.649Z,49.50
2022-11-07T13:59:47.325Z,49.50
2022-11-07T14:02:25.016Z,49.40
2022-11-07T14:07:59.175Z,49.50
2022-11-07T14:10:40.671Z,49.30
2022-11-07T14:13:15.906Z,49.40
2022-11-07T14:15:48.632Z,49.30
2022-11-07T14:18:19.321Z,49.40
2022-11-07T14:20:51.777Z,49.30
2022-11-07T14:23:27.182Z,49.40
2022-11-07T14:26:02.228Z,49.30
2022-11-07T14:28:39.427Z,49.10
2022-11-07T14:31:17.136Z,49.30
2022-11-07T14:33:51.890Z,49.20
2022-11-07T14:36:22.144Z,49.30
2022-11-07T14:38:57.239Z,49.30
2022-11-07T14:41:27.659Z,49.30
2022-11-07T14:43:58.022Z,49.20
2022-11-07T14:46:28.165Z,49.30
2022-11-07T14:48:58.119Z,49.20
2022-11-07T14:51:29.007Z,49.20
2022-11-07T14:54:06.332Z,49.20
2022-11-07T14:56:41.155Z,49.30
2022-11-07T14:59:15.863Z,49.00
2022-11-07T15:02:19.633Z,49.20
2022-11-07T15:04:49.796Z,49.10
2022-11-07T15:07:30.616Z,49.10
2022-11-07T15:10:12.526Z,49.10
2022-11-07T15:12:53.322Z,49.00
2022-11-07T15:15:28.153Z,49.10
2022-11-07T15:17:59.977Z,49.00
2022-11-07T15:20:33.365Z,49.00
2022-11-07T15:23:08.376Z,49.20
2022-11-07T15:25:44.128Z,49.00
2022-11-07T15:28:21.629Z,49.20
2022-11-07T15:30:51.889Z,49.10
2022-11-07T15:33:21.967Z,49.20
2022-11-07T15:35:54.745Z,49.30
2022-11-07T15:38:27.385Z,49.10
2022-11-07T15:40:57.468Z,49.30
2022-11-07T15:43:28.279Z,49.20
2022-11-07T15:45:58.255Z,49.20
2022-11-07T15:48:32.986Z,49.30
2022-11-07T15:51:09.860Z,49.50
2022-11-07T15:53:39.771Z,49.80
2022-11-07T15:56:12.061Z,49.60
2022-11-07T15:58:42.115Z,49.40
2022-11-07T16:01:12.609Z,49.60
2022-11-07T16:03:42.628Z,49.90
2022-11-07T16:06:25.302Z,52.50
2022-11-07T16:08:55.506Z,53.00
2022-11-07T16:11:25.585Z,53.00
2022-11-07T16:14:14.889Z,53.80
2022-11-07T16:16:46.154Z,54.00
2022-11-07T16:19:23.824Z,54.20
2022-11-07T16:21:53.837Z,53.80
2022-11-07T16:24:23.871Z,53.70
2022-11-07T16:26:53.962Z,54.70
2022-11-07T16:29:26.730Z,54.30
2022-11-07T16:31:56.679Z,54.40
2022-11-07T16:34:26.675Z,55.00
2022-11-07T16:36:56.603Z,54.90
2022-11-07T16:39:29.013Z,54.60
2022-11-07T16:41:59.212Z,54.30
2022-11-07T16:44:29.164Z,54.70
2022-11-07T16:46:59.237Z,54.30
2022-11-07T16:49:34.924Z,54.80
2022-11-07T16:52:06.042Z,54.60
2022-11-07T16:54:35.931Z,54.70
2022-11-07T16:57:05.872Z,54.60
2022-11-07T16:59:35.954Z,54.60
2022-11-07T17:02:15.175Z,54.40
2022-11-07T17:04:47.864Z,54.80
2022-11-07T17:07:17.970Z,54.70
2022-11-07T17:09:48.087Z,54.60
2022-11-07T17:12:24.722Z,54.50
2022-11-07T17:14:59.030Z,54.40
2022-11-07T17:17:29.057Z,54.60
2022-11-07T17:19:59.059Z,54.50
2022-11-07T17:22:29.555Z,54.20
2022-11-07T17:24:59.452Z,54.60
2022-11-07T17:27:29.924Z,54.20
2022-11-07T17:30:07.405Z,54.50
2022-11-07T17:32:38.618Z,54.40
2022-11-07T17:35:31.052Z,54.60
2022-11-07T17:37:59.432Z,54.60
2022-11-07T17:40:30.727Z,54.60
2022-11-07T17:43:01.218Z,54.70
2022-11-07T17:45:31.284Z,54.60
2022-11-07T17:48:01.215Z,54.80
2022-11-07T17:50:31.373Z,54.50
2022-11-07T17:53:01.505Z,54.20
2022-11-07T17:55:31.547Z,54.40
2022-11-07T17:58:01.472Z,54.50
2022-11-07T18:00:31.464Z,54.50
2022-11-07T18:03:01.719Z,54.30
2022-11-07T18:05:35.785Z,54.50
2022-11-07T18:08:07.234Z,54.10
2022-11-07T18:10:39.373Z,54.20
2022-11-07T18:13:10.050Z,54.20
2022-11-07T18:15:40.162Z,54.10
2022-11-07T18:18:11.441Z,53.90
2022-11-07T18:20:41.938Z,54.40
2022-11-07T18:23:12.377Z,54.00
2022-11-07T18:25:42.884Z,53.80
2022-11-07T18:28:13.469Z,54.40
2022-11-07T18:30:43.718Z,54.00
2022-11-07T18:33:13.676Z,54.10
2022-11-07T18:35:44.325Z,53.30
2022-11-07T18:38:15.237Z,54.60
2022-11-07T18:40:45.751Z,53.80
2022-11-07T18:43:15.769Z,54.40
2022-11-07T18:45:45.964Z,54.30
2022-11-07T18:48:16.699Z,53.20
2022-11-07T18:50:47.497Z,54.10
2022-11-07T18:53:17.567Z,54.20
2022-11-07T18:55:48.439Z,53.60
2022-11-07T18:58:19.323Z,54.30
2022-11-07T19:00:49.926Z,54.00
2022-11-07T19:03:25.775Z,54.10
2022-11-07T19:06:02.199Z,54.00
2022-11-07T19:08:40.237Z,53.90
2022-11-07T19:11:12.015Z,54.60
2022-11-07T19:13:43.207Z,53.80
2022-11-07T19:16:16.843Z,53.90
2022-11-07T19:18:49.598Z,53.80
2022-11-07T19:21:21.788Z,53.90
2022-11-07T19:23:51.897Z,54.00
2022-11-07T19:26:21.924Z,53.80
2022-11-07T19:28:54.974Z,54.00
2022-11-07T19:31:25.229Z,53.80
2022-11-07T19:33:55.307Z,53.80
2022-11-07T19:36:25.941Z,53.60
2022-11-07T19:38:56.459Z,53.80
2022-11-07T19:41:26.593Z,53.60
2022-11-07T19:43:57.026Z,53.70
2022-11-07T19:46:27.520Z,53.50
2022-11-07T19:48:58.428Z,53.40
2022-11-07T19:51:29.205Z,53.50
2022-11-07T19:54:00.341Z,53.60
2022-11-07T19:56:32.283Z,53.60
2022-11-07T19:59:02.624Z,53.50
2022-11-07T20:01:34.727Z,53.70
2022-11-07T20:04:06.017Z,53.60
2022-11-07T20:06:39.638Z,53.50
2022-11-07T20:09:09.698Z,53.60
2022-11-07T20:11:40.557Z,53.80
2022-11-07T20:14:10.651Z,53.40
2022-11-07T20:16:42.806Z,53.60
2022-11-07T20:19:13.242Z,53.60
2022-11-07T20:21:43.988Z,53.50
2022-11-07T20:24:14.019Z,53.60
2022-11-07T20:26:46.987Z,53.50
2022-11-07T20:29:19.638Z,53.50
2022-11-07T20:31:50.104Z,53.70
2022-11-07T20:34:21.680Z,53.70
2022-11-07T20:36:55.120Z,54.10
2022-11-07T20:39:25.508Z,53.80
2022-11-07T20:41:55.664Z,53.80
2022-11-07T20:44:25.631Z,53.50
2022-11-07T20:46:58.259Z,53.50
2022-11-07T20:49:28.520Z,53.50
2022-11-07T20:51:59.491Z,53.50
2022-11-07T20:54:31.180Z,53.50
2022-11-07T20:57:01.610Z,53.40
2022-11-07T20:59:35.239Z,53.40
2022-11-07T21:02:05.651Z,53.40
2022-11-07T21:04:56.371Z,53.30
2022-11-07T21:07:25.711Z,53.20
2022-11-07T21:09:55.761Z,53.10
2022-11-07T21:12:26.562Z,53.20
2022-11-07T21:14:56.485Z,53.20
2022-11-07T21:17:27.345Z,53.10
2022-11-07T21:19:57.476Z,53.10
2022-11-07T21:22:29.519Z,53.10
2022-11-07T21:25:00.034Z,53.00
2022-11-07T21:27:29.990Z,53.10
2022-11-07T21:30:00.108Z,53.00
2022-11-07T21:32:30.458Z,53.00
2022-11-07T21:35:00.950Z,52.90
2022-11-07T21:37:30.927Z,53.00
2022-11-07T21:40:00.765Z,52.90
2022-11-07T21:42:30.807Z,52.90
2022-11-07T21:45:00.818Z,52.90
2022-11-07T21:47:31.643Z,52.90
2022-11-07T21:50:09.411Z,52.80
2022-11-07T21:52:48.711Z,52.90
2022-11-07T21:55:18.947Z,52.80
2022-11-07T21:57:48.905Z,52.80
2022-11-07T22:00:19.084Z,52.80
2022-11-07T22:02:49.617Z,52.80
2022-11-07T22:05:21.272Z,52.80
2022-11-07T22:07:51.230Z,52.90
2022-11-07T22:10:21.123Z,52.80
2022-11-07T22:12:53.489Z,52.20
2022-11-07T22:15:23.414Z,52.70
2022-11-07T22:17:53.527Z,52.90
2022-11-07T22:20:23.475Z,52.80
2022-11-07T22:22:53.818Z,52.90
2022-11-07T22:25:23.873Z,52.70
2022-11-07T22:27:53.974Z,52.40
2022-11-07T22:30:23.917Z,53.20
2022-11-07T22:32:54.350Z,52.80
2022-11-07T22:35:25.279Z,52.80
2022-11-07T22:37:55.455Z,52.40
2022-11-07T22:40:25.475Z,52.70
2022-11-07T22:42:56.052Z,52.70
2022-11-07T22:45:26.289Z,52.80
2022-11-07T22:47:56.380Z,52.60
2022-11-07T22:50:26.876Z,52.70
2022-11-07T22:52:57.766Z,52.50
2022-11-07T22:55:27.749Z,52.60
2022-11-07T22:57:58.053Z,52.50
2022-11-07T23:00:27.946Z,52.50
2022-11-07T23:02:58.360Z,52.60
2022-11-07T23:05:28.799Z,52.40
2022-11-07T23:07:58.755Z,52.40
2022-11-07T23:10:28.604Z,52.40
2022-11-07T23:12:58.759Z,52.40
2022-11-07T23:15:28.671Z,52.50
2022-11-07T23:17:59.237Z,52.40
2022-11-07T23:20:47.942Z,52.40
2022-11-07T23:23:18.728Z,52.40
2022-11-07T23:25:48.673Z,52.40
2022-11-07T23:28:18.968Z,52.30
2022-11-07T23:30:55.611Z,52.30
2022-11-07T23:33:25.539Z,52.50
2022-11-07T23:35:59.789Z,52.20
2022-11-07T23:38:29.972Z,52.20
2022-11-07T23:41:04.035Z,52.20
2022-11-07T23:43:34.544Z,52.20
2022-11-07T23:46:22.605Z,52.20
2022-11-07T23:49:14.564Z,51.70
2022-11-07T23:51:46.890Z,52.20
2022-11-07T23:54:35.580Z,52.20
2022-11-07T23:57:08.510Z,52.20
2022-11-07T23:59:56.667Z,52.20
